Time;durP1;ratioP1;P1;durP2;ratioP2;P2;SDS_P1;SDS_P2;PMS_P1;PMS_P2;Temp;Humidity;BMP_temperature;BMP_pressure;BME280_temperature;BME280_humidity;BME280_pressure;Samples;Min_cycle;Max_cycle;Signal;HPM_P1;HPM_P2
2021/12/09 00:04:48;;;;;;;0.03;0.00;;;-0.40;99.90;;;;;;20825356;28;20095;-49
2021/12/09 00:14:51;;;;;;;0.08;0.08;;;-0.30;99.90;;;;;;20788946;28;20089;-46
2021/12/09 00:24:54;;;;;;;0.13;0.00;;;-0.40;99.90;;;;;;20734963;28;20038;-47
2021/12/09 00:34:57;;;;;;;0.45;0.00;;;-0.50;99.90;;;;;;20754475;28;20529;-45
2021/12/09 00:45:01;;;;;;;0.30;0.10;;;-0.50;99.90;;;;;;20817441;28;20095;-45
2021/12/09 00:55:06;;;;;;;0.13;0.08;;;-0.50;99.90;;;;;;20817097;28;20409;-46
2021/12/09 01:05:10;;;;;;;0.17;0.05;;;-0.60;99.90;;;;;;20823933;28;20042;-47
2021/12/09 01:15:15;;;;;;;0.45;0.10;;;-0.60;99.90;;;;;;20825783;28;20482;-48
2021/12/09 01:25:25;;;;;;;0.47;0.10;;;-0.70;99.90;;;;;;20812002;28;20041;-47
2021/12/09 01:35:34;;;;;;;0.00;0.00;;;-0.70;99.90;;;;;;20828935;28;20498;-45
2021/12/09 01:45:37;;;;;;;0.20;0.00;;;-0.70;99.90;;;;;;20807543;28;20518;-45
2021/12/09 01:55:40;;;;;;;0.00;0.00;;;-0.70;99.90;;;;;;20832287;28;20034;-46
2021/12/09 02:05:43;;;;;;;0.00;0.00;;;-0.70;99.90;;;;;;20823271;28;20037;-47
2021/12/09 02:15:46;;;;;;;0.00;0.00;;;-0.60;99.90;;;;;;20778547;28;20049;-46
2021/12/09 02:25:49;;;;;;;0.55;0.00;;;-0.80;99.90;;;;;;20736439;28;20045;-45
2021/12/09 02:35:51;;;;;;;0.77;0.40;;;-0.80;99.90;;;;;;20748058;28;20041;-45
2021/12/09 02:45:56;;;;;;;0.28;0.10;;;-0.90;99.90;;;;;;20810526;28;20037;-46
2021/12/09 02:55:59;;;;;;;0.10;0.05;;;-1.00;99.90;;;;;;20811440;28;20037;-46
2021/12/09 03:06:02;;;;;;;0.10;0.00;;;-1.00;99.90;;;;;;20793676;28;20075;-45
2021/12/09 03:16:06;;;;;;;0.10;0.03;;;-0.90;99.90;;;;;;20808914;28;20351;-45
2021/12/09 03:26:09;;;;;;;0.20;0.10;;;-0.80;99.90;;;;;;20811976;28;20080;-46
2021/12/09 03:36:11;;;;;;;0.25;0.10;;;-0.70;99.90;;;;;;20816025;28;20103;-46
2021/12/09 03:46:14;;;;;;;0.52;0.10;;;-0.80;99.90;;;;;;20817472;28;20065;-49
2021/12/09 03:56:18;;;;;;;0.08;0.08;;;-0.90;99.90;;;;;;20812168;28;20045;-46
2021/12/09 04:06:21;;;;;;;0.32;0.10;;;-0.80;99.90;;;;;;20810424;28;20124;-47
2021/12/09 04:16:23;;;;;;;0.40;0.10;;;-0.90;99.90;;;;;;20771702;28;20038;-47
2021/12/09 04:26:26;;;;;;;0.15;0.10;;;-0.90;99.90;;;;;;20732954;28;20046;-52
2021/12/09 04:36:28;;;;;;;0.63;0.20;;;-0.90;99.90;;;;;;20767750;28;20103;-45
2021/12/09 04:46:31;;;;;;;0.30;0.10;;;-0.90;99.90;;;;;;20813548;28;20501;-48
2021/12/09 04:56:36;;;;;;;0.20;0.10;;;-1.00;99.90;;;;;;20812034;28;20037;-46
2021/12/09 05:06:38;;;;;;;0.32;0.10;;;-1.20;99.90;;;;;;20812821;28;20540;-47
2021/12/09 05:16:43;;;;;;;0.10;0.00;;;-1.20;99.90;;;;;;20795968;28;20045;-46
2021/12/09 05:26:51;;;;;;;0.93;0.20;;;-1.10;99.90;;;;;;20816058;28;20553;-46
2021/12/09 05:36:53;;;;;;;0.52;0.10;;;-1.00;99.90;;;;;;20811278;28;20045;-50
2021/12/09 05:46:57;;;;;;;0.17;0.10;;;-1.10;99.90;;;;;;20809768;28;20092;-46
2021/12/09 05:56:59;;;;;;;0.38;0.00;;;-1.10;99.90;;;;;;20808071;28;20041;-46
2021/12/09 06:07:02;;;;;;;0.60;0.10;;;-1.10;99.90;;;;;;20806760;28;20104;-46
2021/12/09 06:17:06;;;;;;;0.57;0.15;;;-1.10;99.90;;;;;;20753608;28;20183;-46
2021/12/09 06:27:09;;;;;;;0.28;0.10;;;-1.10;99.90;;;;;;20723583;28;20104;-46
2021/12/09 06:37:12;;;;;;;0.77;0.10;;;-1.00;99.90;;;;;;20763239;28;20095;-46
2021/12/09 06:47:14;;;;;;;0.40;0.10;;;-1.10;99.90;;;;;;20803576;28;20091;-46
2021/12/09 06:57:17;;;;;;;0.15;0.00;;;-1.00;99.90;;;;;;20802704;28;20410;-47
2021/12/09 07:07:22;;;;;;;0.00;0.00;;;-0.90;99.90;;;;;;20801730;28;20516;-46
2021/12/09 07:17:25;;;;;;;0.20;0.10;;;-0.90;99.90;;;;;;20801078;28;20041;-48
2021/12/09 07:27:28;;;;;;;0.22;0.10;;;-0.90;99.90;;;;;;20801643;28;20037;-47
2021/12/09 07:37:30;;;;;;;0.20;0.00;;;-0.80;99.90;;;;;;20800294;28;20049;-45
2021/12/09 07:47:33;;;;;;;0.10;0.00;;;-0.70;99.90;;;;;;20814365;28;20095;-48
2021/12/09 07:57:36;;;;;;;0.00;0.00;;;-0.50;99.90;;;;;;20816609;28;20033;-46
2021/12/09 08:07:41;;;;;;;0.00;0.00;;;-0.30;99.90;;;;;;20815459;28;20060;-46
2021/12/09 08:17:59;;;;;;;0.00;0.00;;;-0.10;99.90;;;;;;20758407;28;20567;-45
2021/12/09 08:28:01;;;;;;;0.08;0.00;;;0.10;99.90;;;;;;20733568;28;20037;-47
2021/12/09 08:38:07;;;;;;;0.00;0.00;;;0.30;99.90;;;;;;20778329;28;20053;-47
2021/12/09 08:48:10;;;;;;;0.10;0.03;;;0.40;99.90;;;;;;20812620;28;20528;-48
2021/12/09 08:58:14;;;;;;;0.00;0.00;;;0.60;99.90;;;;;;20812595;28;20037;-51
2021/12/09 09:08:17;;;;;;;0.00;0.00;;;0.60;99.90;;;;;;20819879;28;20094;-49
2021/12/09 09:18:20;;;;;;;0.20;0.03;;;0.70;99.90;;;;;;20819017;28;20072;-49
2021/12/09 09:28:23;;;;;;;0.30;0.00;;;0.90;99.90;;;;;;20820556;28;20041;-49
2021/12/09 09:38:26;;;;;;;0.20;0.00;;;1.00;99.90;;;;;;20812328;28;20099;-47
2021/12/09 09:48:29;;;;;;;0.63;0.00;;;1.10;99.90;;;;;;20812215;28;20037;-50
2021/12/09 09:58:32;;;;;;;0.10;0.00;;;1.40;99.90;;;;;;20814391;28;20037;-47
2021/12/09 10:08:35;;;;;;;0.10;0.00;;;1.50;99.90;;;;;;20818854;28;20091;-50
2021/12/09 10:18:44;;;;;;;0.10;0.00;;;1.60;99.90;;;;;;20818937;28;20041;-47
2021/12/09 10:29:08;;;;;;;0.00;0.00;;;1.30;99.90;;;;;;20810486;28;20095;-47
2021/12/09 10:39:19;;;;;;;0.00;0.00;;;1.50;99.90;;;;;;20820202;28;20053;-47
2021/12/09 10:49:23;;;;;;;0.03;0.03;;;1.60;99.90;;;;;;20810157;28;20095;-46
2021/12/09 10:59:30;;;;;;;0.10;0.00;;;1.90;99.90;;;;;;20814761;28;20033;-46
2021/12/09 11:09:36;;;;;;;0.10;0.10;;;2.10;99.90;;;;;;20807965;28;20084;-46
2021/12/09 11:19:47;;;;;;;0.20;0.00;;;2.60;99.90;;;;;;20804291;28;20034;-45
2021/12/09 11:29:54;;;;;;;0.00;0.00;;;2.60;99.90;;;;;;20804967;28;20087;-49
2021/12/09 11:40:38;;;;;;;0.38;0.00;;;3.00;98.30;;;;;;20801901;28;20103;-46
2021/12/09 11:50:43;;;;;;;0.20;0.00;;;3.30;98.60;;;;;;20801485;28;20033;-46
2021/12/09 12:11:42;;;;;;;0.20;0.00;;;3.00;96.70;;;;;;20811515;28;20088;-45
2021/12/09 12:22:24;;;;;;;0.00;0.00;;;3.30;96.90;;;;;;20685997;28;20655;-47
2021/12/09 12:43:01;;;;;;;0.10;0.00;;;2.70;96.60;;;;;;20814565;28;20100;-45
2021/12/09 12:53:29;;;;;;;0.10;0.10;;;2.60;97.20;;;;;;20817606;28;20087;-48
2021/12/09 13:03:40;;;;;;;0.10;0.00;;;2.10;97.80;;;;;;20821210;28;20572;-49
2021/12/09 13:14:04;;;;;;;0.20;0.13;;;1.80;98.00;;;;;;20816759;28;20084;-45
2021/12/09 13:24:25;;;;;;;0.63;0.10;;;1.70;98.20;;;;;;20811837;28;20041;-45
2021/12/09 13:34:40;;;;;;;0.27;0.10;;;1.70;98.80;;;;;;20811329;28;20049;-46
2021/12/09 13:55:24;;;;;;;0.20;0.10;;;1.60;98.10;;;;;;20810849;28;20038;-46
2021/12/09 14:05:44;;;;;;;0.30;0.10;;;1.40;98.30;;;;;;20808042;28;20045;-46
2021/12/09 14:26:00;;;;;;;0.10;0.00;;;1.20;99.00;;;;;;20725277;28;20038;-47
2021/12/09 14:36:08;;;;;;;0.47;0.10;;;1.00;98.40;;;;;;20757587;28;20095;-46
2021/12/09 14:46:17;;;;;;;0.22;0.03;;;0.90;98.50;;;;;;20792272;28;20041;-46
2021/12/09 14:56:25;;;;;;;0.40;0.10;;;0.70;98.90;;;;;;20807352;28;20552;-47
2021/12/09 15:06:36;;;;;;;0.00;0.00;;;0.50;98.50;;;;;;20791816;28;20464;-47
2021/12/09 15:16:39;;;;;;;0.22;0.00;;;0.40;98.50;;;;;;20804824;28;20126;-46
2021/12/09 15:26:50;;;;;;;0.77;0.00;;;0.30;98.70;;;;;;20802854;28;20103;-46
2021/12/09 15:37:04;;;;;;;0.10;0.00;;;0.20;98.70;;;;;;20805587;28;20041;-47
2021/12/09 15:47:18;;;;;;;0.00;0.00;;;0.20;97.90;;;;;;20802206;28;20154;-47
2021/12/09 15:57:24;;;;;;;0.00;0.00;;;0.20;98.20;;;;;;20801442;28;20060;-48
2021/12/09 16:07:27;;;;;;;3.20;0.00;;;0.00;98.50;;;;;;20814394;28;20041;-47
2021/12/09 16:17:34;;;;;;;0.17;0.10;;;-0.30;98.70;;;;;;20762985;28;20042;-48
2021/12/09 16:27:40;;;;;;;0.00;0.00;;;-0.20;98.50;;;;;;20737132;28;20107;-48
2021/12/09 16:37:43;;;;;;;0.00;0.00;;;-0.20;98.00;;;;;;20781142;28;20096;-48
2021/12/09 16:47:48;;;;;;;0.10;0.08;;;-0.10;98.50;;;;;;20822871;28;20025;-49
2021/12/09 16:57:53;;;;;;;0.88;0.00;;;-0.30;99.20;;;;;;20824925;28;20041;-51
2021/12/09 17:07:56;;;;;;;0.17;0.00;;;-0.40;99.80;;;;;;20828167;28;20045;-48
2021/12/09 17:18:01;;;;;;;0.13;0.05;;;-0.50;98.60;;;;;;20821554;28;20046;-48
2021/12/09 17:28:09;;;;;;;0.30;0.00;;;-0.80;99.00;;;;;;20818984;28;20038;-47
2021/12/09 17:38:14;;;;;;;0.30;0.10;;;-1.00;99.90;;;;;;20785974;28;20057;-47
2021/12/09 17:48:17;;;;;;;0.17;0.00;;;-1.30;99.90;;;;;;20835421;28;20071;-48
2021/12/09 17:58:21;;;;;;;0.47;0.10;;;-1.50;99.90;;;;;;20814001;28;20033;-48
2021/12/09 18:08:24;;;;;;;0.45;0.20;;;-1.80;99.90;;;;;;20808364;28;20390;-47
2021/12/09 18:18:27;;;;;;;0.65;0.10;;;-1.90;99.90;;;;;;20742486;28;20065;-47
2021/12/09 18:28:30;;;;;;;0.10;0.10;;;-1.90;99.90;;;;;;20723108;28;20104;-47
2021/12/09 18:38:33;;;;;;;0.40;0.10;;;-1.10;99.90;;;;;;20773656;28;20567;-47
2021/12/09 18:48:36;;;;;;;2.83;0.20;;;-0.80;99.30;;;;;;20803529;28;20087;-46
2021/12/09 18:58:39;;;;;;;0.55;0.10;;;-1.10;99.90;;;;;;20786598;28;20037;-47
2021/12/09 19:08:42;;;;;;;0.95;0.40;;;-1.50;99.90;;;;;;20803351;28;20095;-46
2021/12/09 19:18:45;;;;;;;0.52;0.10;;;-1.60;99.90;;;;;;20801493;28;20037;-48
2021/12/09 19:28:48;;;;;;;0.10;0.10;;;-1.60;99.90;;;;;;20800921;28;20072;-47
2021/12/09 19:38:54;;;;;;;0.68;0.10;;;-1.80;99.90;;;;;;20799790;28;20568;-47
2021/12/09 19:49:03;;;;;;;0.47;0.10;;;-1.70;99.90;;;;;;20800010;28;20110;-47
2021/12/09 19:59:14;;;;;;;0.10;0.10;;;-1.60;99.90;;;;;;20818257;28;20123;-47
2021/12/09 20:09:18;;;;;;;0.00;0.00;;;-1.80;99.30;;;;;;20798575;28;20076;-47
2021/12/09 20:19:25;;;;;;;0.30;0.10;;;-2.00;99.90;;;;;;20788124;28;20099;-50
2021/12/09 20:29:29;;;;;;;0.13;0.10;;;-2.20;99.90;;;;;;20799279;28;20064;-48
2021/12/09 20:39:38;;;;;;;0.35;0.10;;;-2.30;99.90;;;;;;20799524;28;20406;-46
2021/12/09 20:49:42;;;;;;;0.50;0.10;;;-2.30;99.90;;;;;;20802836;28;20033;-49
2021/12/09 20:59:44;;;;;;;0.35;0.10;;;-2.10;99.90;;;;;;20812296;28;20034;-47
2021/12/09 21:09:47;;;;;;;0.20;0.10;;;-1.90;99.90;;;;;;20812683;28;20033;-47
2021/12/09 21:19:52;;;;;;;0.80;0.10;;;-1.90;98.90;;;;;;20671431;28;20042;-47
2021/12/09 21:29:55;;;;;;;0.77;0.10;;;-2.00;99.20;;;;;;20663967;28;20038;-48
2021/12/09 21:39:58;;;;;;;0.65;0.10;;;-2.10;98.90;;;;;;20787909;28;20127;-48
2021/12/09 21:50:03;;;;;;;0.10;0.03;;;-2.10;98.80;;;;;;20808751;28;20115;-48
2021/12/09 22:00:11;;;;;;;0.45;0.10;;;-2.20;98.90;;;;;;20790871;28;20552;-51
2021/12/09 22:10:16;;;;;;;0.10;0.00;;;-1.90;97.80;;;;;;20823368;28;20061;-49
2021/12/09 22:20:20;;;;;;;0.10;0.10;;;-2.00;97.50;;;;;;20806326;28;20046;-47
2021/12/09 22:30:23;;;;;;;0.20;0.00;;;-2.10;97.60;;;;;;20805784;28;20436;-51
2021/12/09 22:40:26;;;;;;;0.95;0.13;;;-2.20;97.80;;;;;;20805693;28;20571;-47
2021/12/09 22:50:29;;;;;;;0.10;0.03;;;-2.40;97.60;;;;;;20805192;28;20567;-47
2021/12/09 23:00:42;;;;;;;0.40;0.10;;;-2.50;97.70;;;;;;20803668;28;20029;-47
2021/12/09 23:10:46;;;;;;;0.20;0.10;;;-2.50;97.80;;;;;;20819424;28;20076;-47
2021/12/09 23:20:49;;;;;;;0.63;0.00;;;-2.50;97.70;;;;;;20802039;28;20121;-47
2021/12/09 23:30:55;;;;;;;0.30;0.00;;;-2.70;97.70;;;;;;20801401;28;20037;-48
2021/12/09 23:41:00;;;;;;;0.00;0.00;;;-2.90;97.90;;;;;;20801293;28;20107;-47
2021/12/09 23:51:06;;;;;;;0.28;0.10;;;-3.20;98.30;;;;;;20818223;28;20063;-46
